Time;durP1;ratioP1;P1;durP2;ratioP2;P2;SDS_P1;SDS_P2;PMS_P1;PMS_P2;Temp;Humidity;BMP_temperature;BMP_pressure;BME280_temperature;BME280_humidity;BME280_pressure;Samples;Min_cycle;Max_cycle;Signal;HPM_P1;HPM_P2
2022/12/19 00:00:03;;;;;;;3.42;1.33;;;9.30;99.90;;;;;;5036846;28;20048;-49
2022/12/19 00:02:37;;;;;;;4.75;1.80;;;9.40;99.90;;;;;;5038017;28;20045;-50
2022/12/19 00:05:04;;;;;;;3.78;1.55;;;9.50;99.90;;;;;;5046515;28;20044;-50
2022/12/19 00:07:31;;;;;;;4.47;1.45;;;9.50;99.90;;;;;;5050339;28;20049;-45
2022/12/19 00:09:58;;;;;;;3.17;1.20;;;9.50;99.90;;;;;;5033652;28;20083;-49
2022/12/19 00:12:25;;;;;;;2.33;1.00;;;9.60;99.90;;;;;;5033380;28;20132;-50
2022/12/19 00:14:51;;;;;;;5.07;0.93;;;9.60;99.90;;;;;;5032815;28;20495;-46
2022/12/19 00:17:18;;;;;;;5.00;1.10;;;9.70;99.90;;;;;;5033469;28;20087;-46
2022/12/19 00:19:45;;;;;;;1.90;1.08;;;9.70;99.90;;;;;;5032929;28;20041;-47
2022/12/19 00:22:11;;;;;;;2.45;1.00;;;9.80;99.90;;;;;;5046872;28;20108;-51
2022/12/19 00:24:38;;;;;;;3.03;1.23;;;9.80;99.90;;;;;;5036310;28;20049;-45
2022/12/19 00:27:05;;;;;;;3.03;0.95;;;9.80;99.90;;;;;;5040352;28;20103;-50
2022/12/19 00:29:32;;;;;;;4.05;1.20;;;9.80;99.90;;;;;;5033891;28;20104;-51
2022/12/19 00:31:59;;;;;;;3.33;0.95;;;9.80;99.90;;;;;;5033535;28;20045;-52
2022/12/19 00:34:26;;;;;;;4.95;1.38;;;9.90;99.90;;;;;;5034759;28;20489;-47
2022/12/19 00:36:53;;;;;;;3.42;1.20;;;9.90;99.90;;;;;;5046964;28;20037;-51
2022/12/19 00:39:19;;;;;;;2.70;0.88;;;10.00;99.90;;;;;;5041378;28;20103;-49
2022/12/19 00:41:46;;;;;;;2.08;1.10;;;10.00;99.90;;;;;;5054404;28;20048;-50
2022/12/19 00:44:13;;;;;;;3.40;1.30;;;10.10;99.90;;;;;;5043729;28;20057;-48
2022/12/19 00:46:40;;;;;;;3.53;1.17;;;10.10;99.90;;;;;;5033572;28;20096;-51
2022/12/19 00:49:07;;;;;;;4.20;1.20;;;10.10;99.90;;;;;;5034826;28;20060;-53
2022/12/19 00:51:34;;;;;;;4.32;1.30;;;10.20;99.90;;;;;;5040785;28;20407;-54
2022/12/19 00:54:00;;;;;;;2.15;0.93;;;10.20;99.90;;;;;;5054530;28;20053;-51
2022/12/19 00:56:31;;;;;;;2.83;1.20;;;10.20;99.90;;;;;;5054372;28;20037;-53
2022/12/19 00:59:05;;;;;;;2.30;1.10;;;10.30;99.90;;;;;;5047312;28;20041;-51
2022/12/19 01:01:32;;;;;;;5.85;1.10;;;10.30;99.90;;;;;;5032993;28;20037;-53
2022/12/19 01:03:59;;;;;;;2.65;1.10;;;10.30;99.90;;;;;;5035661;28;20040;-48
2022/12/19 01:06:46;;;;;;;3.33;1.05;;;10.30;99.90;;;;;;5053653;28;20049;-52
2022/12/19 01:09:13;;;;;;;4.97;1.73;;;10.40;99.90;;;;;;5041349;28;20040;-54
2022/12/19 01:14:26;;;;;;;6.63;1.58;;;10.40;99.90;;;;;;5036866;28;20046;-51
2022/12/19 01:16:53;;;;;;;3.83;1.33;;;10.40;99.90;;;;;;5035027;28;20096;-52
2022/12/19 01:19:19;;;;;;;6.53;1.40;;;10.40;99.90;;;;;;5033039;28;20041;-53
2022/12/19 01:21:46;;;;;;;4.45;1.25;;;10.50;99.90;;;;;;5034379;28;20072;-48
2022/12/19 01:24:13;;;;;;;5.22;1.35;;;10.50;99.90;;;;;;5039805;28;20045;-49
2022/12/19 01:26:48;;;;;;;5.57;1.70;;;10.50;99.90;;;;;;5036523;28;20120;-53
2022/12/19 01:29:14;;;;;;;6.35;1.50;;;10.50;99.90;;;;;;5034348;28;20100;-50
2022/12/19 01:31:41;;;;;;;5.43;1.40;;;10.60;99.90;;;;;;5034704;28;20091;-50
2022/12/19 01:34:08;;;;;;;4.28;1.30;;;10.60;99.90;;;;;;5038748;28;20045;-52
2022/12/19 01:36:35;;;;;;;5.57;1.75;;;10.60;99.90;;;;;;5051907;28;20072;-52
2022/12/19 01:39:05;;;;;;;4.07;1.00;;;10.70;99.90;;;;;;5051417;28;20045;-54
2022/12/19 01:41:32;;;;;;;5.28;1.60;;;10.70;99.90;;;;;;5053354;28;20484;-53
2022/12/19 01:43:59;;;;;;;5.40;1.60;;;10.70;99.90;;;;;;5047810;28;20129;-48
2022/12/19 01:46:25;;;;;;;4.80;1.48;;;10.80;99.90;;;;;;5040084;28;20057;-51
2022/12/19 01:48:54;;;;;;;3.97;1.35;;;10.80;99.90;;;;;;5034107;28;20049;-49
2022/12/19 01:51:21;;;;;;;4.57;1.23;;;10.80;99.90;;;;;;5034780;28;20496;-50
2022/12/19 01:53:47;;;;;;;4.20;1.25;;;10.80;99.90;;;;;;5053191;28;20067;-49
2022/12/19 01:56:15;;;;;;;5.97;1.50;;;10.80;99.90;;;;;;5052896;28;20186;-47
2022/12/19 01:58:47;;;;;;;5.85;1.35;;;10.80;99.90;;;;;;5052169;28;20037;-51
2022/12/19 02:01:14;;;;;;;4.63;1.23;;;10.80;99.90;;;;;;5036569;28;20033;-51
2022/12/19 02:03:41;;;;;;;5.20;1.55;;;10.90;99.90;;;;;;5033686;28;20035;-50
2022/12/19 02:06:08;;;;;;;7.25;1.70;;;10.90;99.90;;;;;;5052071;28;20537;-52
2022/12/19 02:08:35;;;;;;;7.10;1.80;;;10.90;99.90;;;;;;5051350;28;20136;-48
2022/12/19 02:11:02;;;;;;;7.03;1.40;;;11.00;99.90;;;;;;5052674;28;20099;-49
2022/12/19 02:13:30;;;;;;;5.15;1.80;;;11.00;99.90;;;;;;5049624;28;20556;-50
2022/12/19 02:15:58;;;;;;;4.90;1.67;;;11.00;99.90;;;;;;5042532;28;20037;-48
2022/12/19 02:18:25;;;;;;;5.22;1.38;;;11.00;99.90;;;;;;5031793;28;20069;-50
2022/12/19 02:20:52;;;;;;;3.78;1.30;;;11.00;99.90;;;;;;5033420;28;20116;-48
2022/12/19 02:23:19;;;;;;;5.78;1.85;;;11.00;99.90;;;;;;5033674;28;20041;-52
2022/12/19 02:25:46;;;;;;;4.90;1.40;;;11.00;99.90;;;;;;5033217;28;20423;-49
2022/12/19 02:28:14;;;;;;;5.10;1.85;;;11.10;99.90;;;;;;5032170;28;20405;-50
2022/12/19 02:30:41;;;;;;;6.85;1.98;;;11.10;99.90;;;;;;5031039;28;20042;-52
2022/12/19 02:33:09;;;;;;;9.75;2.40;;;11.10;99.90;;;;;;5032091;28;20072;-48
2022/12/19 02:35:36;;;;;;;8.18;2.15;;;11.10;99.90;;;;;;5031959;28;20041;-47
2022/12/19 02:38:02;;;;;;;9.50;2.60;;;11.10;99.90;;;;;;5032259;28;20100;-48
2022/12/19 02:40:34;;;;;;;6.72;2.03;;;11.20;99.90;;;;;;5032965;28;20431;-50
2022/12/19 02:43:01;;;;;;;11.90;2.67;;;11.20;99.90;;;;;;5032579;28;20042;-51
2022/12/19 02:45:27;;;;;;;10.10;2.60;;;11.20;99.90;;;;;;5052259;28;20099;-51
2022/12/19 02:47:55;;;;;;;8.40;2.10;;;11.20;99.90;;;;;;5051170;28;20095;-48
2022/12/19 02:50:22;;;;;;;9.73;2.60;;;11.20;99.90;;;;;;5048975;28;20056;-50
2022/12/19 02:52:50;;;;;;;6.53;2.03;;;11.20;99.90;;;;;;5051091;28;20056;-48
2022/12/19 02:55:16;;;;;;;7.60;2.17;;;11.20;99.90;;;;;;5051827;28;20152;-49
2022/12/19 02:57:44;;;;;;;7.57;2.25;;;11.20;99.90;;;;;;5034576;28;20060;-48
2022/12/19 03:00:12;;;;;;;10.18;2.63;;;11.20;99.90;;;;;;5050774;28;20045;-49
2022/12/19 03:02:39;;;;;;;7.95;2.38;;;11.20;99.90;;;;;;5051036;28;20051;-50
2022/12/19 03:05:08;;;;;;;9.23;2.15;;;11.20;99.90;;;;;;5042906;28;20106;-53
2022/12/19 03:07:35;;;;;;;7.40;2.00;;;11.20;99.90;;;;;;5039569;28;20095;-49
2022/12/19 03:10:02;;;;;;;5.93;1.70;;;11.20;99.90;;;;;;5050823;28;20056;-51
2022/12/19 03:12:29;;;;;;;7.22;2.17;;;11.20;99.90;;;;;;5049736;28;20052;-53
2022/12/19 03:14:56;;;;;;;6.47;2.50;;;11.20;99.90;;;;;;5050825;28;20051;-46
2022/12/19 03:17:24;;;;;;;6.15;2.00;;;11.20;99.90;;;;;;5045964;28;20064;-51
2022/12/19 03:19:51;;;;;;;7.00;2.20;;;11.20;99.90;;;;;;5044972;28;20137;-51
2022/12/19 03:22:17;;;;;;;11.48;2.78;;;11.20;99.90;;;;;;5032054;28;20501;-51
2022/12/19 03:24:44;;;;;;;7.45;2.55;;;11.20;99.90;;;;;;5032229;28;20033;-52
2022/12/19 03:27:11;;;;;;;10.52;2.70;;;11.20;99.90;;;;;;5029997;28;20041;-51
2022/12/19 03:29:38;;;;;;;9.73;2.60;;;11.20;99.90;;;;;;5032525;28;20104;-46
2022/12/19 03:32:04;;;;;;;10.32;2.45;;;11.30;99.90;;;;;;5032812;28;20049;-52
2022/12/19 03:34:31;;;;;;;11.20;2.60;;;11.20;99.90;;;;;;5038527;28;20041;-51
2022/12/19 03:36:58;;;;;;;11.18;2.78;;;11.30;99.90;;;;;;5051792;28;20044;-48
2022/12/19 03:39:25;;;;;;;10.98;2.90;;;11.30;99.90;;;;;;5051242;28;20130;-46
2022/12/19 03:44:37;;;;;;;8.68;2.75;;;11.30;99.90;;;;;;5039475;28;20057;-50
2022/12/19 03:47:04;;;;;;;11.90;2.60;;;11.30;99.90;;;;;;5036319;28;20041;-51
2022/12/19 03:49:32;;;;;;;12.80;3.35;;;11.30;99.90;;;;;;5036244;28;20045;-51
2022/12/19 03:51:58;;;;;;;16.98;3.20;;;11.30;99.90;;;;;;5038998;28;20037;-49
2022/12/19 03:54:25;;;;;;;10.82;3.10;;;11.30;99.90;;;;;;5055555;28;20049;-50
2022/12/19 03:56:52;;;;;;;10.18;2.63;;;11.30;99.90;;;;;;5055485;28;20149;-48
2022/12/19 03:59:20;;;;;;;8.90;2.80;;;11.30;99.90;;;;;;5055213;28;20047;-49
2022/12/19 04:01:46;;;;;;;10.18;2.70;;;11.30;99.90;;;;;;5052348;28;20529;-48
2022/12/19 04:04:13;;;;;;;12.43;3.20;;;11.30;99.90;;;;;;5039072;28;20048;-46
2022/12/19 04:06:40;;;;;;;9.45;2.40;;;11.30;99.90;;;;;;5049803;28;20042;-48
2022/12/19 04:09:07;;;;;;;10.18;2.60;;;11.30;99.90;;;;;;5051853;28;20083;-51
2022/12/19 04:11:35;;;;;;;7.40;2.20;;;11.30;99.90;;;;;;5039570;28;20049;-49
2022/12/19 04:14:02;;;;;;;11.13;2.80;;;11.30;99.90;;;;;;5035261;28;20447;-49
2022/12/19 04:16:28;;;;;;;9.18;2.60;;;11.30;99.90;;;;;;5035888;28;20041;-53
2022/12/19 04:18:55;;;;;;;11.35;2.40;;;11.30;99.90;;;;;;5034746;28;20099;-48
2022/12/19 04:21:22;;;;;;;7.13;2.13;;;11.40;99.90;;;;;;5034459;28;20046;-47
2022/12/19 04:23:49;;;;;;;7.00;2.45;;;11.40;99.90;;;;;;5035887;28;20045;-47
2022/12/19 04:26:15;;;;;;;8.23;2.72;;;11.40;99.90;;;;;;5035499;28;20041;-46
2022/12/19 04:28:42;;;;;;;9.55;2.35;;;11.40;99.90;;;;;;5036118;28;20071;-46
2022/12/19 04:31:09;;;;;;;12.15;2.65;;;11.40;99.90;;;;;;5037605;28;20107;-46
2022/12/19 04:33:36;;;;;;;14.02;2.70;;;11.40;99.90;;;;;;5035432;28;20089;-45
2022/12/19 04:36:03;;;;;;;11.93;2.70;;;11.40;99.90;;;;;;5035083;28;20080;-50
2022/12/19 04:38:29;;;;;;;12.25;2.97;;;11.50;99.90;;;;;;5033909;28;20046;-53
2022/12/19 04:40:56;;;;;;;9.75;3.05;;;11.40;99.90;;;;;;5042138;28;20048;-49
2022/12/19 04:43:23;;;;;;;11.90;2.88;;;11.40;99.90;;;;;;5049678;28;20033;-49
2022/12/19 04:45:50;;;;;;;9.75;2.55;;;11.40;99.90;;;;;;5054217;28;20080;-49
2022/12/19 04:48:23;;;;;;;9.45;2.65;;;11.40;99.90;;;;;;5054010;28;20469;-52
2022/12/19 04:50:49;;;;;;;6.70;2.40;;;11.40;99.90;;;;;;5051015;28;20049;-51
2022/12/19 04:53:16;;;;;;;7.82;2.42;;;11.40;99.90;;;;;;5054166;28;20045;-52
2022/12/19 04:55:43;;;;;;;11.60;2.10;;;11.50;99.90;;;;;;5043014;28;20456;-47
2022/12/19 04:58:10;;;;;;;6.57;1.77;;;11.40;99.90;;;;;;5034486;28;20046;-51
2022/12/19 05:00:37;;;;;;;8.15;1.83;;;11.50;99.90;;;;;;5036191;28;20040;-51
2022/12/19 05:03:04;;;;;;;7.10;2.00;;;11.40;99.90;;;;;;5042581;28;20380;-46
2022/12/19 05:05:30;;;;;;;4.68;1.67;;;11.40;99.90;;;;;;5052817;28;20033;-52
2022/12/19 05:08:00;;;;;;;9.15;1.83;;;11.50;99.90;;;;;;5045436;28;20076;-53
2022/12/19 05:10:27;;;;;;;8.57;2.13;;;11.50;99.90;;;;;;5047912;28;20057;-49
2022/12/19 05:12:53;;;;;;;5.60;1.45;;;11.50;99.90;;;;;;5053524;28;20095;-51
2022/12/19 05:15:20;;;;;;;4.88;1.50;;;11.50;99.90;;;;;;5053644;28;20135;-54
2022/12/19 05:17:47;;;;;;;9.13;2.05;;;11.50;99.90;;;;;;5049996;28;20071;-46
2022/12/19 05:20:14;;;;;;;5.05;1.50;;;11.50;99.90;;;;;;5032880;28;20400;-51
2022/12/19 05:22:40;;;;;;;10.88;1.95;;;11.50;99.90;;;;;;5038307;28;20095;-51
2022/12/19 05:25:07;;;;;;;5.68;1.98;;;11.50;99.90;;;;;;5033587;28;20408;-49
2022/12/19 05:27:34;;;;;;;4.78;1.45;;;11.50;99.90;;;;;;5034399;28;20389;-50
2022/12/19 05:30:01;;;;;;;6.38;1.90;;;11.50;99.90;;;;;;5034523;28;20049;-49
2022/12/19 05:32:27;;;;;;;4.13;1.20;;;11.50;99.90;;;;;;5034744;28;20056;-51
2022/12/19 05:34:54;;;;;;;6.38;1.25;;;11.50;99.90;;;;;;5042708;28;20037;-50
2022/12/19 05:37:21;;;;;;;4.72;1.30;;;11.60;99.90;;;;;;5053332;28;20037;-48
2022/12/19 05:39:48;;;;;;;3.67;1.35;;;11.50;99.90;;;;;;5037383;28;20099;-49
2022/12/19 05:42:14;;;;;;;6.72;1.60;;;11.60;99.90;;;;;;5035804;28;20045;-52
2022/12/19 05:44:41;;;;;;;3.97;1.40;;;11.60;99.90;;;;;;5031594;28;20079;-51
2022/12/19 05:47:08;;;;;;;5.50;1.20;;;11.60;99.90;;;;;;5033184;28;20049;-46
2022/12/19 05:49:34;;;;;;;7.38;1.70;;;11.60;99.90;;;;;;5033957;28;20140;-51
2022/12/19 05:52:01;;;;;;;4.97;1.80;;;11.60;99.90;;;;;;5047891;28;20057;-50
2022/12/19 05:54:28;;;;;;;4.35;1.40;;;11.60;99.90;;;;;;5046991;28;20098;-53
2022/12/19 05:56:55;;;;;;;7.68;2.10;;;11.60;99.90;;;;;;5040253;28;20083;-49
2022/12/19 05:59:21;;;;;;;10.55;2.00;;;11.60;99.90;;;;;;5032909;28;20045;-52
2022/12/19 06:01:48;;;;;;;8.55;2.03;;;11.60;99.90;;;;;;5032830;28;20076;-52
2022/12/19 06:04:15;;;;;;;6.80;1.70;;;11.60;99.90;;;;;;5046766;28;20038;-51
2022/12/19 06:06:42;;;;;;;4.35;1.48;;;11.70;99.90;;;;;;5032262;28;20404;-49
2022/12/19 06:09:09;;;;;;;5.70;1.50;;;11.60;99.90;;;;;;5032412;28;20068;-53
2022/12/19 06:11:35;;;;;;;5.63;1.38;;;11.60;99.90;;;;;;5032849;28;20042;-51
2022/12/19 06:14:02;;;;;;;6.40;1.40;;;11.70;99.90;;;;;;5032751;28;20099;-49
2022/12/19 06:16:29;;;;;;;3.58;1.30;;;11.70;99.90;;;;;;5033638;28;20103;-53
2022/12/19 06:18:56;;;;;;;4.70;1.60;;;11.70;99.90;;;;;;5033665;28;20111;-50
2022/12/19 06:21:23;;;;;;;3.40;1.10;;;11.60;99.90;;;;;;5037371;28;20044;-50
2022/12/19 06:23:50;;;;;;;5.10;1.20;;;11.70;99.90;;;;;;5033750;28;20057;-48
2022/12/19 06:26:16;;;;;;;3.53;1.40;;;11.70;99.90;;;;;;5033280;28;20029;-51
2022/12/19 06:28:45;;;;;;;3.47;1.23;;;11.60;99.90;;;;;;5033534;28;20460;-48
2022/12/19 06:31:13;;;;;;;5.15;1.35;;;11.70;99.90;;;;;;5032841;28;20076;-47
2022/12/19 06:33:41;;;;;;;7.20;1.77;;;11.70;99.90;;;;;;5033339;28;20119;-50
2022/12/19 06:36:08;;;;;;;7.47;1.90;;;11.70;99.90;;;;;;5038168;28;20100;-53
2022/12/19 06:38:34;;;;;;;5.93;1.63;;;11.70;99.90;;;;;;5038723;28;20052;-50
2022/12/19 06:43:47;;;;;;;3.45;1.58;;;11.70;99.90;;;;;;5031249;28;20069;-48
2022/12/19 06:46:19;;;;;;;8.75;2.10;;;11.70;99.90;;;;;;5031719;28;20531;-48
2022/12/19 06:48:46;;;;;;;6.35;1.85;;;11.70;99.90;;;;;;5040615;28;20053;-54
2022/12/19 06:51:15;;;;;;;7.90;1.85;;;11.70;99.90;;;;;;5045308;28;20120;-49
2022/12/19 06:53:42;;;;;;;6.70;1.70;;;11.70;99.90;;;;;;5045565;28;20084;-51
2022/12/19 06:56:08;;;;;;;8.75;1.88;;;11.70;99.90;;;;;;5033762;28;20041;-49
2022/12/19 06:58:35;;;;;;;6.75;2.20;;;11.70;99.90;;;;;;5038119;28;20448;-50
2022/12/19 07:01:02;;;;;;;5.10;1.60;;;11.70;99.90;;;;;;5033764;28;20088;-47
2022/12/19 07:03:29;;;;;;;7.40;1.98;;;11.70;99.90;;;;;;5032778;28;20087;-51
2022/12/19 07:05:55;;;;;;;7.10;1.77;;;11.70;99.90;;;;;;5041157;28;20095;-48
2022/12/19 07:08:22;;;;;;;5.28;1.60;;;11.70;99.90;;;;;;5050328;28;20492;-51
2022/12/19 07:10:49;;;;;;;7.90;1.63;;;11.70;99.90;;;;;;5034253;28;20190;-45
2022/12/19 07:13:15;;;;;;;6.82;1.50;;;11.80;99.90;;;;;;5032921;28;20041;-51
2022/12/19 07:15:42;;;;;;;6.35;1.65;;;11.70;99.90;;;;;;5035858;28;20108;-46
2022/12/19 07:18:09;;;;;;;6.20;2.13;;;11.80;99.90;;;;;;5040298;28;20136;-50
2022/12/19 07:20:36;;;;;;;5.13;1.50;;;11.80;99.90;;;;;;5043828;28;20105;-50
2022/12/19 07:23:10;;;;;;;4.80;1.50;;;11.80;99.90;;;;;;5048790;28;20403;-51
2022/12/19 07:25:37;;;;;;;5.95;1.50;;;11.80;99.90;;;;;;5038724;28;20037;-51
2022/12/19 07:28:04;;;;;;;6.40;1.40;;;11.80;99.90;;;;;;5042221;28;20103;-46
2022/12/19 07:30:31;;;;;;;7.03;1.83;;;11.80;99.90;;;;;;5039843;28;20497;-48
2022/12/19 07:32:58;;;;;;;5.22;1.60;;;11.80;99.90;;;;;;5037911;28;20041;-46
2022/12/19 07:35:25;;;;;;;7.13;1.80;;;11.80;99.90;;;;;;5046761;28;20096;-47
2022/12/19 07:37:51;;;;;;;4.47;1.58;;;11.80;99.90;;;;;;5040124;28;20120;-46
2022/12/19 07:40:18;;;;;;;5.68;1.55;;;11.80;99.90;;;;;;5037260;28;20037;-52
2022/12/19 07:42:45;;;;;;;5.10;1.17;;;11.80;99.90;;;;;;5042782;28;20049;-54
2022/12/19 07:45:12;;;;;;;5.72;1.70;;;11.80;99.90;;;;;;5042950;28;20491;-51
2022/12/19 07:47:38;;;;;;;6.10;1.63;;;11.80;99.90;;;;;;5036262;28;20456;-50
2022/12/19 07:50:05;;;;;;;5.35;1.40;;;11.80;99.90;;;;;;5037398;28;20103;-52
2022/12/19 07:52:32;;;;;;;2.58;1.13;;;11.80;99.90;;;;;;5050571;28;20044;-47
2022/12/19 07:54:59;;;;;;;4.10;1.30;;;11.80;99.90;;;;;;5053553;28;20476;-49
2022/12/19 07:57:25;;;;;;;4.30;1.70;;;11.80;99.90;;;;;;5039930;28;20080;-46
2022/12/19 07:59:52;;;;;;;3.63;1.30;;;11.80;99.90;;;;;;5036029;28;20053;-46
2022/12/19 08:02:19;;;;;;;5.15;1.50;;;11.80;99.90;;;;;;5044546;28;20032;-47
2022/12/19 08:04:46;;;;;;;5.88;1.70;;;11.80;99.90;;;;;;5049574;28;20511;-50
2022/12/19 08:07:13;;;;;;;5.88;1.52;;;11.70;99.90;;;;;;5055985;28;20057;-48
2022/12/19 08:09:40;;;;;;;4.20;1.50;;;11.70;99.90;;;;;;5036459;28;20068;-48
2022/12/19 08:12:07;;;;;;;6.13;1.65;;;11.70;99.90;;;;;;5036979;28;20041;-53
2022/12/19 08:14:33;;;;;;;7.55;2.10;;;11.80;99.90;;;;;;5059551;28;20094;-45
2022/12/19 08:17:00;;;;;;;9.30;2.60;;;11.70;99.90;;;;;;5034106;28;20128;-45
2022/12/19 08:19:47;;;;;;;6.75;2.17;;;11.80;99.90;;;;;;5043408;28;20065;-45
2022/12/19 08:22:13;;;;;;;8.88;2.50;;;11.70;99.90;;;;;;5034854;28;20050;-48
2022/12/19 08:24:40;;;;;;;6.75;2.13;;;11.80;99.90;;;;;;5035529;28;20049;-47
2022/12/19 08:27:07;;;;;;;9.40;2.60;;;11.70;99.90;;;;;;5035394;28;20064;-49
2022/12/19 08:29:34;;;;;;;6.32;2.15;;;11.80;99.90;;;;;;5040530;28;20045;-47
2022/12/19 08:32:00;;;;;;;7.10;2.22;;;11.70;99.90;;;;;;5035411;28;20072;-49
2022/12/19 08:34:27;;;;;;;12.23;2.80;;;11.80;99.90;;;;;;5037340;28;20118;-48
2022/12/19 08:36:54;;;;;;;11.07;2.70;;;11.70;99.90;;;;;;5034889;28;20574;-48
2022/12/19 08:39:21;;;;;;;10.57;2.90;;;11.70;99.90;;;;;;5038889;28;20503;-51
2022/12/19 08:41:47;;;;;;;9.20;2.88;;;11.70;99.90;;;;;;5030970;28;20061;-46
2022/12/19 08:44:15;;;;;;;8.73;2.38;;;11.70;99.90;;;;;;5032320;28;20091;-50
2022/12/19 08:46:42;;;;;;;12.88;2.75;;;11.70;99.90;;;;;;5031207;28;20041;-52
2022/12/19 08:49:15;;;;;;;8.63;2.47;;;11.80;99.90;;;;;;5032587;28;20045;-49
2022/12/19 08:51:42;;;;;;;11.68;2.63;;;11.80;99.90;;;;;;5032909;28;20057;-54
2022/12/19 08:54:09;;;;;;;8.25;2.08;;;11.80;99.90;;;;;;5034591;28;20049;-45
2022/12/19 08:56:37;;;;;;;8.75;2.28;;;11.80;99.90;;;;;;5034543;28;20049;-47
2022/12/19 08:59:12;;;;;;;8.48;2.63;;;11.80;99.90;;;;;;5036654;28;20045;-45
2022/12/19 09:01:41;;;;;;;9.95;2.40;;;11.80;99.90;;;;;;5034474;28;20041;-52
2022/12/19 09:04:08;;;;;;;6.88;2.30;;;11.80;99.90;;;;;;5034803;28;20045;-48
2022/12/19 09:06:55;;;;;;;10.07;2.40;;;11.80;99.90;;;;;;5034211;28;20050;-49
2022/12/19 09:09:21;;;;;;;10.20;2.42;;;11.80;99.90;;;;;;5034640;28;20137;-51
2022/12/19 09:11:48;;;;;;;6.13;1.95;;;11.90;99.90;;;;;;5034553;28;20049;-48
2022/12/19 09:14:15;;;;;;;8.82;2.40;;;11.90;99.90;;;;;;5036586;28;20091;-50
2022/12/19 09:16:47;;;;;;;7.18;2.08;;;11.90;99.90;;;;;;5044611;28;20045;-52
2022/12/19 09:19:15;;;;;;;8.88;2.33;;;11.90;99.90;;;;;;5054358;28;20120;-52
2022/12/19 09:21:42;;;;;;;7.95;2.28;;;11.90;99.90;;;;;;5054157;28;20113;-50
2022/12/19 09:24:09;;;;;;;12.57;2.20;;;11.90;99.90;;;;;;5053609;28;20029;-51
2022/12/19 09:26:38;;;;;;;5.50;2.15;;;11.90;99.90;;;;;;5054602;28;20072;-52
2022/12/19 09:29:06;;;;;;;6.65;2.10;;;11.90;99.90;;;;;;5054579;28;20043;-52
2022/12/19 09:31:46;;;;;;;7.60;1.92;;;11.90;99.90;;;;;;5053453;28;20044;-52
2022/12/19 09:34:16;;;;;;;8.90;2.35;;;12.00;99.90;;;;;;5054877;28;20404;-53
2022/12/19 09:36:43;;;;;;;9.35;2.30;;;11.90;99.90;;;;;;5053014;28;20110;-46
2022/12/19 09:39:11;;;;;;;9.40;2.30;;;12.00;99.90;;;;;;5052444;28;20041;-51
2022/12/19 09:41:38;;;;;;;11.32;2.40;;;12.00;99.90;;;;;;5050953;28;20553;-52
2022/12/19 09:44:04;;;;;;;12.52;2.10;;;12.00;99.90;;;;;;5052796;28;20061;-52
2022/12/19 09:46:31;;;;;;;9.90;2.10;;;12.00;99.90;;;;;;5051335;28;20081;-47
2022/12/19 09:48:58;;;;;;;7.15;1.77;;;12.00;99.90;;;;;;5052824;28;20056;-54
2022/12/19 09:51:25;;;;;;;5.70;1.85;;;12.00;99.90;;;;;;5053637;28;20037;-48
2022/12/19 09:53:52;;;;;;;6.70;1.80;;;12.00;99.90;;;;;;5054071;28;20442;-48
2022/12/19 09:56:20;;;;;;;10.50;1.90;;;12.00;99.90;;;;;;5053834;28;20128;-48
2022/12/19 09:58:47;;;;;;;5.60;1.48;;;12.00;99.90;;;;;;5053985;28;20040;-45
2022/12/19 10:01:13;;;;;;;5.20;1.58;;;12.00;99.90;;;;;;5053593;28;20134;-50
2022/12/19 10:03:40;;;;;;;6.70;1.48;;;12.00;99.90;;;;;;5053717;28;20060;-51
2022/12/19 10:06:07;;;;;;;5.00;1.30;;;12.00;99.90;;;;;;5053488;28;20041;-50
2022/12/19 10:08:54;;;;;;;6.43;1.42;;;12.00;99.90;;;;;;5053524;28;20151;-47
2022/12/19 10:11:41;;;;;;;6.00;1.60;;;12.00;99.90;;;;;;5053886;28;20080;-47
2022/12/19 10:14:28;;;;;;;5.13;1.60;;;12.00;99.90;;;;;;5052629;28;20114;-49
2022/12/19 10:16:57;;;;;;;7.78;1.63;;;12.00;99.90;;;;;;5053704;28;20060;-49
2022/12/19 10:19:44;;;;;;;6.43;1.58;;;12.00;99.90;;;;;;5053553;28;20044;-48
2022/12/19 10:22:11;;;;;;;4.85;1.50;;;12.00;99.90;;;;;;5053529;28;20041;-51
2022/12/19 10:24:45;;;;;;;12.45;2.60;;;12.00;99.90;;;;;;5052212;28;20056;-56
2022/12/19 10:27:32;;;;;;;7.57;1.88;;;12.00;99.90;;;;;;5053880;28;20049;-53
2022/12/19 10:30:00;;;;;;;10.10;2.28;;;12.00;99.90;;;;;;5053479;28;20480;-47
2022/12/19 10:32:27;;;;;;;9.98;2.55;;;12.00;99.90;;;;;;5052965;28;20041;-52
2022/12/19 10:34:54;;;;;;;9.23;2.22;;;12.00;99.90;;;;;;5053642;28;20440;-53
2022/12/19 10:37:21;;;;;;;13.10;2.50;;;12.00;99.90;;;;;;5053393;28;20045;-47
2022/12/19 10:39:56;;;;;;;9.75;2.40;;;12.00;99.90;;;;;;5053471;28;20047;-53
2022/12/19 10:42:23;;;;;;;9.98;2.33;;;12.00;99.90;;;;;;5053286;28;20381;-52
2022/12/19 10:44:50;;;;;;;13.38;2.92;;;11.90;99.90;;;;;;5053072;28;20075;-51
2022/12/19 10:47:17;;;;;;;10.77;2.60;;;11.90;99.90;;;;;;5053076;28;20037;-47
2022/12/19 10:49:43;;;;;;;13.55;2.78;;;12.00;99.90;;;;;;5053484;28;20495;-51
2022/12/19 10:52:11;;;;;;;15.25;3.60;;;12.00;99.90;;;;;;5052817;28;20123;-51
2022/12/19 10:54:38;;;;;;;9.60;3.03;;;11.90;99.90;;;;;;5053157;28;20470;-50
2022/12/19 10:57:05;;;;;;;11.68;2.70;;;11.90;99.90;;;;;;5053578;28;20047;-47
2022/12/19 10:59:32;;;;;;;13.02;2.55;;;12.00;99.90;;;;;;5052998;28;20052;-53
2022/12/19 11:01:59;;;;;;;6.75;1.88;;;12.00;99.90;;;;;;5051812;28;20098;-50
2022/12/19 11:04:30;;;;;;;10.30;1.77;;;12.00;99.90;;;;;;5053082;28;20480;-48
2022/12/19 11:06:57;;;;;;;9.25;1.95;;;12.00;99.90;;;;;;5052576;28;20045;-45
2022/12/19 11:09:24;;;;;;;6.10;1.80;;;12.00;99.90;;;;;;5053262;28;20441;-51
2022/12/19 11:11:51;;;;;;;5.85;1.60;;;11.90;99.90;;;;;;5053207;28;20049;-51
2022/12/19 11:14:37;;;;;;;5.80;1.60;;;12.00;99.90;;;;;;5052879;28;20550;-50
2022/12/19 11:17:25;;;;;;;7.05;1.70;;;12.00;99.90;;;;;;5053178;28;20464;-46
2022/12/19 11:20:11;;;;;;;11.05;1.50;;;11.90;99.90;;;;;;5051478;28;20470;-48
2022/12/19 11:22:59;;;;;;;7.63;1.60;;;12.00;99.90;;;;;;5052668;28;20127;-47
2022/12/19 11:25:46;;;;;;;6.88;1.35;;;11.90;99.90;;;;;;5052674;28;20136;-51
2022/12/19 11:28:33;;;;;;;6.07;2.25;;;12.00;99.90;;;;;;5052938;28;20073;-47
2022/12/19 11:31:20;;;;;;;7.72;1.20;;;11.90;99.90;;;;;;5051832;28;20132;-48
2022/12/19 11:34:07;;;;;;;6.75;1.50;;;11.90;99.90;;;;;;5052691;28;20076;-48
2022/12/19 11:36:34;;;;;;;6.28;1.63;;;11.90;99.90;;;;;;5052817;28;20061;-52
2022/12/19 11:39:01;;;;;;;9.02;2.15;;;11.90;99.90;;;;;;5052845;28;20077;-51
2022/12/19 11:41:28;;;;;;;9.65;2.03;;;11.90;99.90;;;;;;5052770;28;20103;-49
2022/12/19 11:43:55;;;;;;;9.80;2.10;;;11.90;99.90;;;;;;5052686;28;20072;-52
2022/12/19 11:46:21;;;;;;;12.15;2.78;;;12.00;99.90;;;;;;5052395;28;20045;-51
2022/12/19 11:48:48;;;;;;;16.60;2.80;;;12.00;99.90;;;;;;5051597;28;20395;-46
2022/12/19 11:51:15;;;;;;;12.85;2.50;;;12.00;99.90;;;;;;5052793;28;20473;-53
2022/12/19 11:53:42;;;;;;;15.70;2.95;;;12.00;99.90;;;;;;5050991;28;20041;-51
2022/12/19 11:56:08;;;;;;;18.73;3.25;;;12.00;99.90;;;;;;5052252;28;20059;-53
2022/12/19 11:58:42;;;;;;;10.63;2.72;;;12.00;99.90;;;;;;5052344;28;20037;-50
2022/12/19 12:01:09;;;;;;;9.90;2.05;;;12.00;99.90;;;;;;5052063;28;20040;-50
2022/12/19 12:03:37;;;;;;;13.60;2.95;;;12.00;99.90;;;;;;5053751;28;20372;-52
2022/12/19 12:06:04;;;;;;;11.05;2.80;;;12.00;99.90;;;;;;5055659;28;20037;-52
2022/12/19 12:08:31;;;;;;;13.93;2.85;;;12.10;99.90;;;;;;5055992;28;20099;-50
2022/12/19 12:11:18;;;;;;;10.35;2.90;;;12.00;99.90;;;;;;5056057;28;20122;-52
2022/12/19 12:14:05;;;;;;;9.05;2.90;;;12.10;99.90;;;;;;5055963;28;20118;-51
2022/12/19 12:16:51;;;;;;;12.52;2.70;;;12.10;99.90;;;;;;5055901;28;20094;-50
2022/12/19 12:19:38;;;;;;;14.30;3.10;;;12.10;99.90;;;;;;5056115;28;20115;-51
2022/12/19 12:22:25;;;;;;;12.18;2.53;;;12.10;99.90;;;;;;5055808;28;20060;-49
2022/12/19 12:25:12;;;;;;;16.08;2.88;;;12.10;99.90;;;;;;5055750;28;20112;-50
2022/12/19 12:27:58;;;;;;;13.85;3.38;;;12.20;99.90;;;;;;5055930;28;20037;-46
2022/12/19 12:30:45;;;;;;;10.65;2.67;;;12.20;99.90;;;;;;5056014;28;20045;-51
2022/12/19 12:33:32;;;;;;;15.93;3.33;;;12.20;99.90;;;;;;5055917;28;20045;-49
2022/12/19 12:36:19;;;;;;;17.90;3.03;;;12.20;99.90;;;;;;5057038;28;20136;-49
2022/12/19 12:39:05;;;;;;;9.07;2.80;;;12.20;99.90;;;;;;5055622;28;20056;-47
2022/12/19 12:44:17;;;;;;;17.83;2.88;;;12.30;99.90;;;;;;5055659;28;20381;-49
2022/12/19 12:46:58;;;;;;;13.80;3.00;;;12.20;99.90;;;;;;5055764;28;20045;-49
2022/12/19 12:49:25;;;;;;;12.10;3.22;;;12.30;99.90;;;;;;5055449;28;20059;-46
2022/12/19 12:51:51;;;;;;;12.27;2.78;;;12.30;99.90;;;;;;5056049;28;20490;-52
2022/12/19 12:54:18;;;;;;;11.32;2.72;;;12.30;99.90;;;;;;5055658;28;20033;-49
2022/12/19 12:56:45;;;;;;;18.70;2.95;;;12.30;99.90;;;;;;5053970;28;20090;-51
2022/12/19 12:59:12;;;;;;;10.80;2.97;;;12.30;99.90;;;;;;5055298;28;20071;-47
2022/12/19 13:01:38;;;;;;;10.55;2.50;;;12.30;99.90;;;;;;5053585;28;20056;-48
2022/12/19 13:04:06;;;;;;;12.77;3.03;;;12.30;99.90;;;;;;5054755;28;20128;-50